sensor_id;sensor_type;location;lat;lon;timestamp;P1;durP1;ratioP1;P2;durP2;ratioP2
80185;SDS011;69904;52.122;5.422;2024-01-07T00:00:23;8.73;;;4.93;;
80185;SDS011;69904;52.122;5.422;2024-01-07T00:02:50;6.80;;;4.63;;
80185;SDS011;69904;52.122;5.422;2024-01-07T00:05:17;9.80;;;4.10;;
80185;SDS011;69904;52.122;5.422;2024-01-07T00:07:43;7.20;;;4.07;;
80185;SDS011;69904;52.122;5.422;2024-01-07T00:10:09;10.55;;;5.53;;
80185;SDS011;69904;52.122;5.422;2024-01-07T00:12:36;9.48;;;4.78;;
80185;SDS011;69904;52.122;5.422;2024-01-07T00:15:03;7.68;;;4.38;;
80185;SDS011;69904;52.122;5.422;2024-01-07T00:17:29;8.52;;;5.07;;
80185;SDS011;69904;52.122;5.422;2024-01-07T00:19:56;12.48;;;5.35;;
80185;SDS011;69904;52.122;5.422;2024-01-07T00:22:23;7.57;;;4.40;;
80185;SDS011;69904;52.122;5.422;2024-01-07T00:24:49;6.90;;;3.67;;
80185;SDS011;69904;52.122;5.422;2024-01-07T00:27:16;5.25;;;3.45;;
80185;SDS011;69904;52.122;5.422;2024-01-07T00:29:42;6.47;;;3.38;;
80185;SDS011;69904;52.122;5.422;2024-01-07T00:32:08;8.45;;;4.00;;
80185;SDS011;69904;52.122;5.422;2024-01-07T00:34:35;9.65;;;5.00;;
80185;SDS011;69904;52.122;5.422;2024-01-07T00:37:02;7.05;;;4.32;;
80185;SDS011;69904;52.122;5.422;2024-01-07T00:39:28;8.20;;;4.30;;
80185;SDS011;69904;52.122;5.422;2024-01-07T00:41:55;11.00;;;4.13;;
80185;SDS011;69904;52.122;5.422;2024-01-07T00:44:21;7.60;;;3.70;;
80185;SDS011;69904;52.122;5.422;2024-01-07T00:46:48;6.55;;;3.53;;
80185;SDS011;69904;52.122;5.422;2024-01-07T00:49:14;7.57;;;4.95;;
80185;SDS011;69904;52.122;5.422;2024-01-07T00:51:41;7.65;;;3.83;;
80185;SDS011;69904;52.122;5.422;2024-01-07T00:54:08;7.72;;;3.20;;
80185;SDS011;69904;52.122;5.422;2024-01-07T00:56:34;8.30;;;4.15;;
80185;SDS011;69904;52.122;5.422;2024-01-07T00:59:01;8.95;;;4.35;;
80185;SDS011;69904;52.122;5.422;2024-01-07T01:01:28;5.70;;;4.25;;
80185;SDS011;69904;52.122;5.422;2024-01-07T01:03:55;7.88;;;4.68;;
80185;SDS011;69904;52.122;5.422;2024-01-07T01:06:21;7.90;;;4.55;;
80185;SDS011;69904;52.122;5.422;2024-01-07T01:08:47;7.45;;;3.30;;
80185;SDS011;69904;52.122;5.422;2024-01-07T01:11:14;7.82;;;3.70;;
80185;SDS011;69904;52.122;5.422;2024-01-07T01:13:40;8.68;;;3.92;;
80185;SDS011;69904;52.122;5.422;2024-01-07T01:16:07;8.77;;;4.43;;
80185;SDS011;69904;52.122;5.422;2024-01-07T01:18:33;9.40;;;4.30;;
80185;SDS011;69904;52.122;5.422;2024-01-07T01:21:00;7.85;;;4.22;;
80185;SDS011;69904;52.122;5.422;2024-01-07T01:23:26;6.50;;;3.58;;
80185;SDS011;69904;52.122;5.422;2024-01-07T01:25:53;7.07;;;4.63;;
80185;SDS011;69904;52.122;5.422;2024-01-07T01:28:19;8.00;;;4.68;;
80185;SDS011;69904;52.122;5.422;2024-01-07T01:30:46;8.18;;;4.40;;
80185;SDS011;69904;52.122;5.422;2024-01-07T01:33:12;11.77;;;5.60;;
80185;SDS011;69904;52.122;5.422;2024-01-07T01:35:39;7.28;;;4.88;;
80185;SDS011;69904;52.122;5.422;2024-01-07T01:38:05;9.32;;;5.00;;
80185;SDS011;69904;52.122;5.422;2024-01-07T01:40:32;8.80;;;5.03;;
80185;SDS011;69904;52.122;5.422;2024-01-07T01:42:58;7.68;;;4.88;;
80185;SDS011;69904;52.122;5.422;2024-01-07T01:45:25;9.85;;;4.43;;
80185;SDS011;69904;52.122;5.422;2024-01-07T01:47:51;9.77;;;4.63;;
80185;SDS011;69904;52.122;5.422;2024-01-07T01:50:18;8.50;;;5.03;;
80185;SDS011;69904;52.122;5.422;2024-01-07T01:52:45;10.43;;;4.57;;
80185;SDS011;69904;52.122;5.422;2024-01-07T01:55:12;10.07;;;4.28;;
80185;SDS011;69904;52.122;5.422;2024-01-07T01:57:40;7.45;;;4.68;;
80185;SDS011;69904;52.122;5.422;2024-01-07T02:00:07;7.00;;;5.20;;
80185;SDS011;69904;52.122;5.422;2024-01-07T02:02:34;9.50;;;4.75;;
80185;SDS011;69904;52.122;5.422;2024-01-07T02:05:02;10.75;;;5.43;;
80185;SDS011;69904;52.122;5.422;2024-01-07T02:07:29;8.85;;;4.43;;
80185;SDS011;69904;52.122;5.422;2024-01-07T02:12:24;9.15;;;3.70;;
80185;SDS011;69904;52.122;5.422;2024-01-07T02:14:50;7.15;;;4.65;;
80185;SDS011;69904;52.122;5.422;2024-01-07T02:17:17;9.93;;;4.82;;
80185;SDS011;69904;52.122;5.422;2024-01-07T02:19:45;9.73;;;4.30;;
80185;SDS011;69904;52.122;5.422;2024-01-07T02:22:11;10.55;;;5.28;;
80185;SDS011;69904;52.122;5.422;2024-01-07T02:24:38;12.02;;;5.25;;
80185;SDS011;69904;52.122;5.422;2024-01-07T02:27:04;10.13;;;4.68;;
80185;SDS011;69904;52.122;5.422;2024-01-07T02:29:31;11.75;;;5.18;;
80185;SDS011;69904;52.122;5.422;2024-01-07T02:31:57;11.13;;;5.47;;
80185;SDS011;69904;52.122;5.422;2024-01-07T02:34:24;11.13;;;4.85;;
80185;SDS011;69904;52.122;5.422;2024-01-07T02:36:50;10.85;;;5.95;;
80185;SDS011;69904;52.122;5.422;2024-01-07T02:39:17;13.30;;;6.50;;
80185;SDS011;69904;52.122;5.422;2024-01-07T02:41:44;11.85;;;6.03;;
80185;SDS011;69904;52.122;5.422;2024-01-07T02:44:11;12.65;;;5.95;;
80185;SDS011;69904;52.122;5.422;2024-01-07T02:46:38;6.90;;;4.57;;
80185;SDS011;69904;52.122;5.422;2024-01-07T02:49:05;11.63;;;5.45;;
80185;SDS011;69904;52.122;5.422;2024-01-07T02:51:32;7.63;;;5.32;;
80185;SDS011;69904;52.122;5.422;2024-01-07T02:53:58;13.80;;;6.43;;
80185;SDS011;69904;52.122;5.422;2024-01-07T02:56:25;11.00;;;5.25;;
80185;SDS011;69904;52.122;5.422;2024-01-07T02:58:51;10.23;;;5.00;;
80185;SDS011;69904;52.122;5.422;2024-01-07T03:01:18;9.40;;;5.40;;
80185;SDS011;69904;52.122;5.422;2024-01-07T03:03:48;7.00;;;4.63;;
80185;SDS011;69904;52.122;5.422;2024-01-07T03:06:14;8.82;;;4.65;;
80185;SDS011;69904;52.122;5.422;2024-01-07T03:08:41;9.20;;;5.22;;
80185;SDS011;69904;52.122;5.422;2024-01-07T03:13:35;13.18;;;5.38;;
80185;SDS011;69904;52.122;5.422;2024-01-07T03:16:01;8.30;;;5.03;;
80185;SDS011;69904;52.122;5.422;2024-01-07T03:18:28;9.30;;;4.70;;
80185;SDS011;69904;52.122;5.422;2024-01-07T03:20:57;12.45;;;5.82;;
80185;SDS011;69904;52.122;5.422;2024-01-07T03:23:24;10.43;;;5.07;;
80185;SDS011;69904;52.122;5.422;2024-01-07T03:25:50;8.30;;;4.88;;
80185;SDS011;69904;52.122;5.422;2024-01-07T03:28:17;12.82;;;5.30;;
80185;SDS011;69904;52.122;5.422;2024-01-07T03:30:43;8.77;;;4.50;;
80185;SDS011;69904;52.122;5.422;2024-01-07T03:33:10;8.88;;;5.68;;
80185;SDS011;69904;52.122;5.422;2024-01-07T03:35:36;9.57;;;4.88;;
80185;SDS011;69904;52.122;5.422;2024-01-07T03:38:03;9.02;;;5.05;;
80185;SDS011;69904;52.122;5.422;2024-01-07T03:40:29;8.98;;;5.53;;
80185;SDS011;69904;52.122;5.422;2024-01-07T03:42:56;10.30;;;6.43;;
80185;SDS011;69904;52.122;5.422;2024-01-07T03:45:23;9.55;;;5.50;;
80185;SDS011;69904;52.122;5.422;2024-01-07T03:47:49;9.88;;;5.50;;
80185;SDS011;69904;52.122;5.422;2024-01-07T03:50:16;9.95;;;5.53;;
80185;SDS011;69904;52.122;5.422;2024-01-07T03:52:42;10.27;;;5.97;;
80185;SDS011;69904;52.122;5.422;2024-01-07T03:55:09;10.75;;;5.45;;
80185;SDS011;69904;52.122;5.422;2024-01-07T03:57:36;8.80;;;4.88;;
80185;SDS011;69904;52.122;5.422;2024-01-07T04:00:02;9.13;;;5.22;;
80185;SDS011;69904;52.122;5.422;2024-01-07T04:02:30;9.30;;;5.20;;
80185;SDS011;69904;52.122;5.422;2024-01-07T04:04:56;13.63;;;5.70;;
80185;SDS011;69904;52.122;5.422;2024-01-07T04:07:23;10.40;;;5.05;;
80185;SDS011;69904;52.122;5.422;2024-01-07T04:09:49;11.25;;;5.68;;
80185;SDS011;69904;52.122;5.422;2024-01-07T04:12:16;11.10;;;5.90;;
80185;SDS011;69904;52.122;5.422;2024-01-07T04:14:43;13.38;;;5.70;;
80185;SDS011;69904;52.122;5.422;2024-01-07T04:17:09;10.43;;;6.18;;
80185;SDS011;69904;52.122;5.422;2024-01-07T04:19:36;12.73;;;5.13;;
80185;SDS011;69904;52.122;5.422;2024-01-07T04:22:04;8.65;;;4.30;;
80185;SDS011;69904;52.122;5.422;2024-01-07T04:24:31;11.32;;;4.55;;
80185;SDS011;69904;52.122;5.422;2024-01-07T04:26:57;10.95;;;5.78;;
80185;SDS011;69904;52.122;5.422;2024-01-07T04:29:24;11.15;;;6.18;;
80185;SDS011;69904;52.122;5.422;2024-01-07T04:31:50;10.10;;;5.10;;
80185;SDS011;69904;52.122;5.422;2024-01-07T04:34:17;14.95;;;6.28;;
80185;SDS011;69904;52.122;5.422;2024-01-07T04:36:44;14.00;;;5.82;;
80185;SDS011;69904;52.122;5.422;2024-01-07T04:39:10;7.88;;;4.90;;
80185;SDS011;69904;52.122;5.422;2024-01-07T04:41:37;10.63;;;5.28;;
80185;SDS011;69904;52.122;5.422;2024-01-07T04:44:03;11.68;;;5.18;;
80185;SDS011;69904;52.122;5.422;2024-01-07T04:46:33;8.10;;;5.97;;
80185;SDS011;69904;52.122;5.422;2024-01-07T04:49:00;13.82;;;4.97;;
80185;SDS011;69904;52.122;5.422;2024-01-07T04:51:26;11.20;;;5.75;;
80185;SDS011;69904;52.122;5.422;2024-01-07T04:53:53;9.63;;;4.72;;
80185;SDS011;69904;52.122;5.422;2024-01-07T04:56:20;12.27;;;5.82;;
80185;SDS011;69904;52.122;5.422;2024-01-07T04:58:46;10.18;;;6.00;;
80185;SDS011;69904;52.122;5.422;2024-01-07T05:01:12;10.05;;;4.88;;
80185;SDS011;69904;52.122;5.422;2024-01-07T05:03:39;8.27;;;4.82;;
80185;SDS011;69904;52.122;5.422;2024-01-07T05:06:09;9.88;;;6.03;;
80185;SDS011;69904;52.122;5.422;2024-01-07T05:08:36;4.57;;;4.07;;
80185;SDS011;69904;52.122;5.422;2024-01-07T05:11:03;7.80;;;4.80;;
80185;SDS011;69904;52.122;5.422;2024-01-07T05:13:30;9.65;;;6.40;;
80185;SDS011;69904;52.122;5.422;2024-01-07T05:15:57;6.50;;;4.22;;
80185;SDS011;69904;52.122;5.422;2024-01-07T05:18:24;8.75;;;4.65;;
80185;SDS011;69904;52.122;5.422;2024-01-07T05:20:51;6.93;;;4.25;;
80185;SDS011;69904;52.122;5.422;2024-01-07T05:23:18;9.35;;;4.07;;
80185;SDS011;69904;52.122;5.422;2024-01-07T05:25:45;7.85;;;4.50;;
80185;SDS011;69904;52.122;5.422;2024-01-07T05:28:12;6.25;;;4.55;;
80185;SDS011;69904;52.122;5.422;2024-01-07T05:30:40;6.28;;;3.85;;
80185;SDS011;69904;52.122;5.422;2024-01-07T05:35:34;9.02;;;4.38;;
80185;SDS011;69904;52.122;5.422;2024-01-07T05:38:01;7.65;;;3.83;;
80185;SDS011;69904;52.122;5.422;2024-01-07T05:40:27;8.02;;;3.78;;
80185;SDS011;69904;52.122;5.422;2024-01-07T05:42:54;10.25;;;4.05;;
80185;SDS011;69904;52.122;5.422;2024-01-07T05:45:20;7.40;;;3.85;;
80185;SDS011;69904;52.122;5.422;2024-01-07T05:47:47;7.00;;;4.13;;
80185;SDS011;69904;52.122;5.422;2024-01-07T05:50:13;7.85;;;4.32;;
80185;SDS011;69904;52.122;5.422;2024-01-07T05:52:42;6.07;;;3.85;;
80185;SDS011;69904;52.122;5.422;2024-01-07T05:55:08;6.35;;;4.38;;
80185;SDS011;69904;52.122;5.422;2024-01-07T05:57:35;7.45;;;4.82;;
80185;SDS011;69904;52.122;5.422;2024-01-07T06:00:02;5.10;;;3.88;;
80185;SDS011;69904;52.122;5.422;2024-01-07T06:02:28;7.22;;;4.10;;
80185;SDS011;69904;52.122;5.422;2024-01-07T06:04:55;7.18;;;4.15;;
80185;SDS011;69904;52.122;5.422;2024-01-07T06:07:21;7.70;;;4.38;;
80185;SDS011;69904;52.122;5.422;2024-01-07T06:09:48;8.15;;;4.60;;
80185;SDS011;69904;52.122;5.422;2024-01-07T06:12:14;6.72;;;3.75;;
80185;SDS011;69904;52.122;5.422;2024-01-07T06:14:41;8.57;;;4.03;;
80185;SDS011;69904;52.122;5.422;2024-01-07T06:17:07;10.02;;;5.03;;
80185;SDS011;69904;52.122;5.422;2024-01-07T06:19:34;7.70;;;3.50;;
80185;SDS011;69904;52.122;5.422;2024-01-07T06:22:00;5.75;;;3.50;;
80185;SDS011;69904;52.122;5.422;2024-01-07T06:24:27;7.53;;;4.32;;
80185;SDS011;69904;52.122;5.422;2024-01-07T06:26:53;11.63;;;6.00;;
80185;SDS011;69904;52.122;5.422;2024-01-07T06:29:20;7.30;;;4.15;;
80185;SDS011;69904;52.122;5.422;2024-01-07T06:31:46;7.80;;;3.70;;
80185;SDS011;69904;52.122;5.422;2024-01-07T06:34:13;5.78;;;3.65;;
80185;SDS011;69904;52.122;5.422;2024-01-07T06:36:40;7.18;;;3.33;;
80185;SDS011;69904;52.122;5.422;2024-01-07T06:39:10;6.47;;;3.75;;
80185;SDS011;69904;52.122;5.422;2024-01-07T06:41:37;7.65;;;3.67;;
80185;SDS011;69904;52.122;5.422;2024-01-07T06:44:03;6.00;;;3.88;;
80185;SDS011;69904;52.122;5.422;2024-01-07T06:46:29;7.30;;;3.35;;
80185;SDS011;69904;52.122;5.422;2024-01-07T06:48:56;5.32;;;3.20;;
80185;SDS011;69904;52.122;5.422;2024-01-07T06:51:23;5.20;;;3.20;;
80185;SDS011;69904;52.122;5.422;2024-01-07T06:53:49;6.05;;;3.33;;
80185;SDS011;69904;52.122;5.422;2024-01-07T06:56:16;6.10;;;3.08;;
80185;SDS011;69904;52.122;5.422;2024-01-07T06:58:43;10.07;;;4.35;;
80185;SDS011;69904;52.122;5.422;2024-01-07T07:01:10;6.07;;;3.72;;
80185;SDS011;69904;52.122;5.422;2024-01-07T07:03:39;6.88;;;3.97;;
80185;SDS011;69904;52.122;5.422;2024-01-07T07:06:06;8.02;;;4.55;;
80185;SDS011;69904;52.122;5.422;2024-01-07T07:08:33;7.43;;;3.75;;
80185;SDS011;69904;52.122;5.422;2024-01-07T07:11:00;5.32;;;3.63;;
80185;SDS011;69904;52.122;5.422;2024-01-07T07:13:27;6.30;;;4.22;;
80185;SDS011;69904;52.122;5.422;2024-01-07T07:15:53;7.63;;;4.38;;
80185;SDS011;69904;52.122;5.422;2024-01-07T07:18:20;7.78;;;4.68;;
80185;SDS011;69904;52.122;5.422;2024-01-07T07:20:47;5.70;;;3.65;;
80185;SDS011;69904;52.122;5.422;2024-01-07T07:23:13;8.65;;;4.55;;
80185;SDS011;69904;52.122;5.422;2024-01-07T07:25:40;8.93;;;4.40;;
80185;SDS011;69904;52.122;5.422;2024-01-07T07:28:06;7.63;;;4.63;;
80185;SDS011;69904;52.122;5.422;2024-01-07T07:30:33;8.60;;;4.32;;
80185;SDS011;69904;52.122;5.422;2024-01-07T07:32:59;9.63;;;4.35;;
80185;SDS011;69904;52.122;5.422;2024-01-07T07:35:26;7.32;;;4.38;;
80185;SDS011;69904;52.122;5.422;2024-01-07T07:37:52;6.78;;;3.75;;
80185;SDS011;69904;52.122;5.422;2024-01-07T07:40:19;6.40;;;4.35;;
80185;SDS011;69904;52.122;5.422;2024-01-07T07:42:46;8.27;;;4.50;;
80185;SDS011;69904;52.122;5.422;2024-01-07T07:45:12;5.47;;;3.58;;
80185;SDS011;69904;52.122;5.422;2024-01-07T07:47:39;4.18;;;3.65;;
80185;SDS011;69904;52.122;5.422;2024-01-07T07:50:11;6.07;;;3.70;;
80185;SDS011;69904;52.122;5.422;2024-01-07T07:52:37;6.28;;;3.15;;
80185;SDS011;69904;52.122;5.422;2024-01-07T07:55:04;6.55;;;4.50;;
80185;SDS011;69904;52.122;5.422;2024-01-07T07:57:33;8.63;;;4.75;;
80185;SDS011;69904;52.122;5.422;2024-01-07T08:00:00;6.07;;;2.95;;
80185;SDS011;69904;52.122;5.422;2024-01-07T08:02:30;5.32;;;3.67;;
80185;SDS011;69904;52.122;5.422;2024-01-07T08:04:56;11.55;;;4.03;;
80185;SDS011;69904;52.122;5.422;2024-01-07T08:07:23;8.65;;;3.90;;
80185;SDS011;69904;52.122;5.422;2024-01-07T08:09:49;7.05;;;3.47;;
80185;SDS011;69904;52.122;5.422;2024-01-07T08:12:16;3.85;;;2.97;;
80185;SDS011;69904;52.122;5.422;2024-01-07T08:14:42;5.18;;;3.65;;
80185;SDS011;69904;52.122;5.422;2024-01-07T08:17:09;5.22;;;3.33;;
80185;SDS011;69904;52.122;5.422;2024-01-07T08:19:35;5.85;;;3.85;;
80185;SDS011;69904;52.122;5.422;2024-01-07T08:22:02;6.82;;;3.15;;
80185;SDS011;69904;52.122;5.422;2024-01-07T08:24:29;6.22;;;3.50;;
80185;SDS011;69904;52.122;5.422;2024-01-07T08:26:55;3.65;;;3.08;;
80185;SDS011;69904;52.122;5.422;2024-01-07T08:29:22;6.30;;;3.38;;
80185;SDS011;69904;52.122;5.422;2024-01-07T08:31:48;4.85;;;3.47;;
80185;SDS011;69904;52.122;5.422;2024-01-07T08:34:15;7.93;;;4.03;;
80185;SDS011;69904;52.122;5.422;2024-01-07T08:36:42;3.85;;;2.92;;
80185;SDS011;69904;52.122;5.422;2024-01-07T08:39:09;6.20;;;4.40;;
80185;SDS011;69904;52.122;5.422;2024-01-07T08:41:35;5.13;;;3.67;;
80185;SDS011;69904;52.122;5.422;2024-01-07T08:44:01;5.25;;;3.70;;
80185;SDS011;69904;52.122;5.422;2024-01-07T08:46:28;8.05;;;4.45;;
80185;SDS011;69904;52.122;5.422;2024-01-07T08:48:54;5.10;;;3.35;;
80185;SDS011;69904;52.122;5.422;2024-01-07T08:51:21;5.35;;;3.78;;
80185;SDS011;69904;52.122;5.422;2024-01-07T08:53:48;7.43;;;3.58;;
80185;SDS011;69904;52.122;5.422;2024-01-07T08:56:15;4.97;;;3.42;;
80185;SDS011;69904;52.122;5.422;2024-01-07T08:58:41;4.70;;;3.35;;
80185;SDS011;69904;52.122;5.422;2024-01-07T09:01:08;5.45;;;2.75;;
80185;SDS011;69904;52.122;5.422;2024-01-07T09:03:35;8.50;;;3.30;;
80185;SDS011;69904;52.122;5.422;2024-01-07T09:06:02;5.15;;;3.03;;
80185;SDS011;69904;52.122;5.422;2024-01-07T09:08:28;5.78;;;3.45;;
80185;SDS011;69904;52.122;5.422;2024-01-07T09:10:55;5.60;;;3.35;;
80185;SDS011;69904;52.122;5.422;2024-01-07T09:13:21;4.25;;;2.95;;
80185;SDS011;69904;52.122;5.422;2024-01-07T09:15:48;2.85;;;2.50;;
80185;SDS011;69904;52.122;5.422;2024-01-07T09:18:15;4.68;;;2.95;;
80185;SDS011;69904;52.122;5.422;2024-01-07T09:20:42;5.93;;;3.10;;
80185;SDS011;69904;52.122;5.422;2024-01-07T09:23:08;4.68;;;2.75;;
80185;SDS011;69904;52.122;5.422;2024-01-07T09:25:34;6.05;;;3.00;;
80185;SDS011;69904;52.122;5.422;2024-01-07T09:28:01;7.70;;;4.57;;
80185;SDS011;69904;52.122;5.422;2024-01-07T09:30:28;5.68;;;3.08;;
80185;SDS011;69904;52.122;5.422;2024-01-07T09:32:54;4.28;;;2.58;;
80185;SDS011;69904;52.122;5.422;2024-01-07T09:35:21;5.82;;;2.70;;
80185;SDS011;69904;52.122;5.422;2024-01-07T09:37:48;9.75;;;4.40;;
80185;SDS011;69904;52.122;5.422;2024-01-07T09:40:18;6.15;;;3.33;;
80185;SDS011;69904;52.122;5.422;2024-01-07T09:42:47;4.38;;;2.78;;
80185;SDS011;69904;52.122;5.422;2024-01-07T09:45:15;5.38;;;2.45;;
80185;SDS011;69904;52.122;5.422;2024-01-07T09:47:44;4.45;;;2.97;;
80185;SDS011;69904;52.122;5.422;2024-01-07T09:50:12;2.75;;;2.15;;
80185;SDS011;69904;52.122;5.422;2024-01-07T09:52:41;4.57;;;2.67;;
80185;SDS011;69904;52.122;5.422;2024-01-07T09:55:12;5.40;;;2.85;;
80185;SDS011;69904;52.122;5.422;2024-01-07T09:57:45;6.38;;;3.15;;
80185;SDS011;69904;52.122;5.422;2024-01-07T10:00:12;4.00;;;2.22;;
80185;SDS011;69904;52.122;5.422;2024-01-07T10:02:39;4.13;;;2.13;;
80185;SDS011;69904;52.122;5.422;2024-01-07T10:05:07;4.78;;;2.63;;
80185;SDS011;69904;52.122;5.422;2024-01-07T10:07:34;5.05;;;2.67;;
80185;SDS011;69904;52.122;5.422;2024-01-07T10:10:09;4.10;;;2.40;;
80185;SDS011;69904;52.122;5.422;2024-01-07T10:12:39;4.20;;;2.80;;
80185;SDS011;69904;52.122;5.422;2024-01-07T10:15:05;5.22;;;3.47;;
80185;SDS011;69904;52.122;5.422;2024-01-07T10:17:32;3.40;;;2.20;;
80185;SDS011;69904;52.122;5.422;2024-01-07T10:19:59;4.07;;;2.55;;
80185;SDS011;69904;52.122;5.422;2024-01-07T10:22:25;5.68;;;2.22;;
80185;SDS011;69904;52.122;5.422;2024-01-07T10:24:52;2.83;;;1.40;;
80185;SDS011;69904;52.122;5.422;2024-01-07T10:27:19;2.20;;;1.48;;
80185;SDS011;69904;52.122;5.422;2024-01-07T10:29:48;3.20;;;1.90;;
80185;SDS011;69904;52.122;5.422;2024-01-07T10:34:46;2.80;;;1.58;;
80185;SDS011;69904;52.122;5.422;2024-01-07T10:37:16;2.30;;;1.17;;
80185;SDS011;69904;52.122;5.422;2024-01-07T10:39:42;3.28;;;1.88;;
80185;SDS011;69904;52.122;5.422;2024-01-07T10:42:09;3.63;;;2.00;;
80185;SDS011;69904;52.122;5.422;2024-01-07T10:44:37;3.13;;;1.55;;
80185;SDS011;69904;52.122;5.422;2024-01-07T10:47:06;2.97;;;1.50;;
80185;SDS011;69904;52.122;5.422;2024-01-07T10:49:34;4.38;;;2.00;;
80185;SDS011;69904;52.122;5.422;2024-01-07T10:52:03;2.28;;;1.50;;
80185;SDS011;69904;52.122;5.422;2024-01-07T10:54:31;1.83;;;1.15;;
80185;SDS011;69904;52.122;5.422;2024-01-07T11:00:07;1.83;;;1.13;;
80185;SDS011;69904;52.122;5.422;2024-01-07T11:02:44;7.88;;;1.92;;
80185;SDS011;69904;52.122;5.422;2024-01-07T11:05:28;3.30;;;1.98;;
80185;SDS011;69904;52.122;5.422;2024-01-07T11:08:01;2.28;;;1.15;;
80185;SDS011;69904;52.122;5.422;2024-01-07T11:10:41;3.58;;;1.65;;
80185;SDS011;69904;52.122;5.422;2024-01-07T11:13:37;4.55;;;1.50;;
80185;SDS011;69904;52.122;5.422;2024-01-07T11:16:05;1.38;;;1.25;;
80185;SDS011;69904;52.122;5.422;2024-01-07T11:18:39;2.38;;;1.25;;
80185;SDS011;69904;52.122;5.422;2024-01-07T11:21:20;2.78;;;1.90;;
80185;SDS011;69904;52.122;5.422;2024-01-07T11:23:47;3.40;;;1.40;;
80185;SDS011;69904;52.122;5.422;2024-01-07T11:26:14;2.70;;;1.35;;
80185;SDS011;69904;52.122;5.422;2024-01-07T11:28:50;2.80;;;1.23;;
80185;SDS011;69904;52.122;5.422;2024-01-07T11:31:19;1.38;;;0.85;;
80185;SDS011;69904;52.122;5.422;2024-01-07T11:33:49;2.70;;;1.40;;
80185;SDS011;69904;52.122;5.422;2024-01-07T11:36:17;1.75;;;1.35;;
80185;SDS011;69904;52.122;5.422;2024-01-07T11:38:47;2.95;;;1.65;;
80185;SDS011;69904;52.122;5.422;2024-01-07T11:41:20;2.17;;;0.88;;
80185;SDS011;69904;52.122;5.422;2024-01-07T11:46:21;1.95;;;1.08;;
80185;SDS011;69904;52.122;5.422;2024-01-07T11:48:50;1.40;;;0.90;;
80185;SDS011;69904;52.122;5.422;2024-01-07T11:51:19;2.10;;;1.17;;
80185;SDS011;69904;52.122;5.422;2024-01-07T11:53:46;3.22;;;1.20;;
80185;SDS011;69904;52.122;5.422;2024-01-07T11:56:13;2.60;;;1.10;;
80185;SDS011;69904;52.122;5.422;2024-01-07T11:58:40;1.35;;;0.77;;
80185;SDS011;69904;52.122;5.422;2024-01-07T12:01:08;2.42;;;1.15;;
80185;SDS011;69904;52.122;5.422;2024-01-07T12:03:34;2.90;;;1.05;;
80185;SDS011;69904;52.122;5.422;2024-01-07T12:06:01;3.28;;;1.40;;
80185;SDS011;69904;52.122;5.422;2024-01-07T12:08:29;1.30;;;0.95;;
80185;SDS011;69904;52.122;5.422;2024-01-07T12:10:56;4.10;;;1.13;;
80185;SDS011;69904;52.122;5.422;2024-01-07T12:13:23;1.95;;;1.10;;
80185;SDS011;69904;52.122;5.422;2024-01-07T12:15:50;1.75;;;0.93;;
80185;SDS011;69904;52.122;5.422;2024-01-07T12:18:17;1.70;;;0.90;;
80185;SDS011;69904;52.122;5.422;2024-01-07T12:20:54;2.67;;;1.17;;
80185;SDS011;69904;52.122;5.422;2024-01-07T12:23:21;1.55;;;0.88;;
80185;SDS011;69904;52.122;5.422;2024-01-07T12:25:48;2.20;;;1.20;;
80185;SDS011;69904;52.122;5.422;2024-01-07T12:28:16;2.25;;;1.10;;
80185;SDS011;69904;52.122;5.422;2024-01-07T12:30:44;2.78;;;0.95;;
80185;SDS011;69904;52.122;5.422;2024-01-07T12:33:12;1.73;;;1.02;;
80185;SDS011;69904;52.122;5.422;2024-01-07T12:35:42;2.10;;;1.13;;
80185;SDS011;69904;52.122;5.422;2024-01-07T12:38:08;2.33;;;1.23;;
80185;SDS011;69904;52.122;5.422;2024-01-07T12:40:35;1.88;;;0.77;;
80185;SDS011;69904;52.122;5.422;2024-01-07T12:43:02;2.08;;;1.00;;
80185;SDS011;69904;52.122;5.422;2024-01-07T12:45:29;1.13;;;0.82;;
80185;SDS011;69904;52.122;5.422;2024-01-07T12:47:56;2.38;;;0.90;;
80185;SDS011;69904;52.122;5.422;2024-01-07T12:50:25;2.13;;;0.68;;
80185;SDS011;69904;52.122;5.422;2024-01-07T12:52:54;1.13;;;0.73;;
80185;SDS011;69904;52.122;5.422;2024-01-07T12:55:21;1.73;;;0.90;;
80185;SDS011;69904;52.122;5.422;2024-01-07T12:57:48;1.35;;;0.80;;
80185;SDS011;69904;52.122;5.422;2024-01-07T13:00:15;1.25;;;0.70;;
80185;SDS011;69904;52.122;5.422;2024-01-07T13:02:42;2.42;;;1.02;;
80185;SDS011;69904;52.122;5.422;2024-01-07T13:05:09;1.52;;;0.90;;
80185;SDS011;69904;52.122;5.422;2024-01-07T13:07:35;1.67;;;0.70;;
80185;SDS011;69904;52.122;5.422;2024-01-07T13:10:02;1.50;;;0.90;;
80185;SDS011;69904;52.122;5.422;2024-01-07T13:12:29;2.17;;;0.85;;
80185;SDS011;69904;52.122;5.422;2024-01-07T13:15:12;2.10;;;1.15;;
80185;SDS011;69904;52.122;5.422;2024-01-07T13:17:40;2.30;;;1.10;;
80185;SDS011;69904;52.122;5.422;2024-01-07T13:20:07;1.83;;;0.90;;
80185;SDS011;69904;52.122;5.422;2024-01-07T13:22:37;4.00;;;1.10;;
80185;SDS011;69904;52.122;5.422;2024-01-07T13:25:05;1.25;;;0.70;;
80185;SDS011;69904;52.122;5.422;2024-01-07T13:27:32;2.47;;;1.00;;
80185;SDS011;69904;52.122;5.422;2024-01-07T13:30:02;1.52;;;0.80;;
80185;SDS011;69904;52.122;5.422;2024-01-07T13:32:29;1.13;;;0.75;;
80185;SDS011;69904;52.122;5.422;2024-01-07T13:34:56;1.08;;;0.52;;
80185;SDS011;69904;52.122;5.422;2024-01-07T13:37:22;0.90;;;0.60;;
80185;SDS011;69904;52.122;5.422;2024-01-07T13:39:49;1.38;;;0.77;;
80185;SDS011;69904;52.122;5.422;2024-01-07T13:42:16;3.03;;;0.80;;
80185;SDS011;69904;52.122;5.422;2024-01-07T13:44:42;1.30;;;0.63;;
80185;SDS011;69904;52.122;5.422;2024-01-07T13:47:13;2.38;;;0.65;;
80185;SDS011;69904;52.122;5.422;2024-01-07T13:49:40;1.27;;;0.80;;
80185;SDS011;69904;52.122;5.422;2024-01-07T13:54:34;2.20;;;0.52;;
80185;SDS011;69904;52.122;5.422;2024-01-07T13:57:01;1.55;;;0.70;;
80185;SDS011;69904;52.122;5.422;2024-01-07T13:59:28;3.75;;;0.70;;
80185;SDS011;69904;52.122;5.422;2024-01-07T14:01:55;1.85;;;0.80;;
80185;SDS011;69904;52.122;5.422;2024-01-07T14:04:24;1.55;;;0.88;;
80185;SDS011;69904;52.122;5.422;2024-01-07T14:06:53;1.17;;;0.73;;
80185;SDS011;69904;52.122;5.422;2024-01-07T14:09:21;0.95;;;0.80;;
80185;SDS011;69904;52.122;5.422;2024-01-07T14:11:48;1.38;;;0.60;;
80185;SDS011;69904;52.122;5.422;2024-01-07T14:14:15;1.08;;;0.60;;
80185;SDS011;69904;52.122;5.422;2024-01-07T14:16:41;1.42;;;0.70;;
80185;SDS011;69904;52.122;5.422;2024-01-07T14:19:08;2.35;;;0.70;;
80185;SDS011;69904;52.122;5.422;2024-01-07T14:21:35;1.00;;;0.63;;
80185;SDS011;69904;52.122;5.422;2024-01-07T14:24:01;0.65;;;0.60;;
80185;SDS011;69904;52.122;5.422;2024-01-07T14:26:29;2.95;;;0.52;;
80185;SDS011;69904;52.122;5.422;2024-01-07T14:28:55;1.45;;;0.90;;
80185;SDS011;69904;52.122;5.422;2024-01-07T14:31:41;1.42;;;0.60;;
80185;SDS011;69904;52.122;5.422;2024-01-07T14:34:07;1.65;;;0.80;;
80185;SDS011;69904;52.122;5.422;2024-01-07T14:36:34;2.15;;;0.93;;
80185;SDS011;69904;52.122;5.422;2024-01-07T14:39:00;2.67;;;1.00;;
80185;SDS011;69904;52.122;5.422;2024-01-07T14:41:27;1.70;;;0.65;;
80185;SDS011;69904;52.122;5.422;2024-01-07T14:43:53;1.58;;;0.70;;
80185;SDS011;69904;52.122;5.422;2024-01-07T14:46:21;2.92;;;0.90;;
80185;SDS011;69904;52.122;5.422;2024-01-07T14:48:48;1.55;;;1.00;;
80185;SDS011;69904;52.122;5.422;2024-01-07T14:51:15;1.42;;;0.93;;
80185;SDS011;69904;52.122;5.422;2024-01-07T14:53:41;1.35;;;0.80;;
80185;SDS011;69904;52.122;5.422;2024-01-07T14:56:08;0.70;;;0.52;;
80185;SDS011;69904;52.122;5.422;2024-01-07T14:58:34;2.38;;;0.73;;
80185;SDS011;69904;52.122;5.422;2024-01-07T15:01:01;1.80;;;0.70;;
80185;SDS011;69904;52.122;5.422;2024-01-07T15:03:28;2.13;;;0.60;;